< < Back
Terminal Aerodrome Forecast


Current Version              Previous Versions:   1  2  3  4  5  6  7  8  9  

Terminal Aerodrome Forecast

680
FTUS42 KFFC 211100
TAFFTY
TAF
KFTY 211133Z 2112/2212 00000KT P6SM SKC
     FM211400 30006KT P6SM SKC
     FM211700 32009G14KT P6SM FEW030
     FM220000 33005KT P6SM SKC=



Latest METAR

415
SAUS70 KWBC 202100 RRX
MTRFTY
METAR KFTY 211953Z 32013G16KT 10SM SCT047 24/11 A2995 RMK AO2 SLP136
T02390111


USA.gov is the U.S. government's official web portal to all federal, state and local government web resources and services.